Time;durP1;ratioP1;P1;durP2;ratioP2;P2;SDS_P1;SDS_P2;PMS_P1;PMS_P2;Temp;Humidity;BMP_temperature;BMP_pressure;BME280_temperature;BME280_humidity;BME280_pressure;Samples;Min_cycle;Max_cycle;Signal;HPM_P1;HPM_P2
2023/12/09 00:02:39;;;;;;;7.57;3.00;;;;;;;;;;5044039;28;20051;-81
2023/12/09 00:05:37;;;;;;;3.17;2.10;;;;;;;;;;5047240;28;20083;-81
2023/12/09 00:08:15;;;;;;;2.13;1.42;;;;;;;;;;5049956;28;20032;-80
2023/12/09 00:10:49;;;;;;;2.95;1.95;;;;;;;;;;5049428;28;20040;-81
2023/12/09 00:13:17;;;;;;;2.13;1.48;;;;;;;;;;5048608;28;20024;-81
2023/12/09 00:15:42;;;;;;;2.20;1.45;;;;;;;;;;5048885;28;20063;-82
2023/12/09 00:18:14;;;;;;;2.67;1.83;;;;;;;;;;5049682;28;20036;-81
2023/12/09 00:20:40;;;;;;;7.57;2.78;;;;;;;;;;5047907;28;20025;-82
2023/12/09 00:23:06;;;;;;;1.92;1.83;;;;;;;;;;5050066;28;20054;-81
2023/12/09 00:25:31;;;;;;;4.90;2.25;;;;;;;;;;5048819;28;20036;-80
2023/12/09 00:27:57;;;;;;;2.97;1.70;;;;;;;;;;5052436;28;20528;-80
2023/12/09 00:30:22;;;;;;;1.77;1.67;;;;;;;;;;5051267;28;20025;-80
2023/12/09 00:32:48;;;;;;;1.75;1.25;;;;;;;;;;5051883;28;20472;-80
2023/12/09 00:35:20;;;;;;;4.55;3.03;;;;;;;;;;5051995;28;20051;-83
2023/12/09 00:37:46;;;;;;;3.33;2.05;;;;;;;;;;5052910;28;20033;-79
2023/12/09 00:40:12;;;;;;;2.33;1.52;;;;;;;;;;5051993;28;20415;-79
2023/12/09 00:42:41;;;;;;;2.55;1.52;;;;;;;;;;5053420;28;20485;-82
2023/12/09 00:45:07;;;;;;;2.75;2.05;;;;;;;;;;5053144;28;20043;-82
2023/12/09 00:47:32;;;;;;;0.93;0.85;;;;;;;;;;5053833;28;20024;-81
2023/12/09 00:49:58;;;;;;;2.20;1.88;;;;;;;;;;5053980;28;20021;-81
2023/12/09 00:52:23;;;;;;;2.55;1.92;;;;;;;;;;5052379;28;20029;-80
2023/12/09 00:54:48;;;;;;;1.23;1.13;;;;;;;;;;5051768;28;20032;-79
2023/12/09 00:57:14;;;;;;;4.10;2.42;;;;;;;;;;5069706;28;20178;-80
2023/12/09 00:59:42;;;;;;;3.95;2.38;;;;;;;;;;5054805;28;20041;-81
2023/12/09 01:02:07;;;;;;;2.38;2.13;;;;;;;;;;5053782;28;20037;-80
2023/12/09 01:04:33;;;;;;;4.95;2.33;;;;;;;;;;5053286;28;20051;-80
2023/12/09 01:07:01;;;;;;;3.28;2.58;;;;;;;;;;5053000;28;20033;-81
2023/12/09 01:09:26;;;;;;;5.65;3.17;;;;;;;;;;5056051;28;20040;-80
2023/12/09 01:11:52;;;;;;;0.63;0.63;;;;;;;;;;5054562;28;20033;-81
2023/12/09 01:14:17;;;;;;;1.33;1.23;;;;;;;;;;5053063;28;20036;-81
2023/12/09 01:16:43;;;;;;;1.73;1.63;;;;;;;;;;5052232;28;20021;-80
2023/12/09 01:19:19;;;;;;;1.58;1.48;;;;;;;;;;5054860;28;20048;-80
2023/12/09 01:21:44;;;;;;;1.02;1.00;;;;;;;;;;5052065;28;20033;-80
2023/12/09 01:24:13;;;;;;;1.55;0.95;;;;;;;;;;5054846;28;20472;-83
2023/12/09 01:26:39;;;;;;;1.33;1.23;;;;;;;;;;5052990;28;20072;-80
2023/12/09 01:29:04;;;;;;;0.90;0.90;;;;;;;;;;5054007;28;20060;-81
2023/12/09 01:31:35;;;;;;;0.90;0.90;;;;;;;;;;5054324;28;20036;-83
2023/12/09 01:34:05;;;;;;;2.40;1.38;;;;;;;;;;5051784;28;20175;-83
2023/12/09 01:36:31;;;;;;;6.43;2.08;;;;;;;;;;5053285;28;20713;-81
2023/12/09 01:39:02;;;;;;;3.85;2.58;;;;;;;;;;5053740;28;20040;-81
2023/12/09 01:41:37;;;;;;;8.25;2.88;;;;;;;;;;5050993;28;20036;-82
2023/12/09 01:44:17;;;;;;;3.88;2.08;;;;;;;;;;5050304;28;20048;-79
2023/12/09 01:46:43;;;;;;;7.38;1.85;;;;;;;;;;5058285;28;20415;-79
2023/12/09 01:49:10;;;;;;;4.85;0.93;;;;;;;;;;5052459;28;20108;-79
2023/12/09 01:51:38;;;;;;;6.22;1.70;;;;;;;;;;5068194;28;20067;-80
2023/12/09 01:54:04;;;;;;;2.60;1.77;;;;;;;;;;5052455;28;20396;-80
2023/12/09 01:56:37;;;;;;;1.90;1.80;;;;;;;;;;5052963;28;20493;-82
2023/12/09 01:59:03;;;;;;;1.65;1.30;;;;;;;;;;5055091;28;20148;-82
2023/12/09 02:01:33;;;;;;;0.68;0.68;;;;;;;;;;5052069;28;20025;-84
2023/12/09 02:03:59;;;;;;;6.35;1.50;;;;;;;;;;5083796;28;20029;-81
2023/12/09 02:06:25;;;;;;;2.35;2.15;;;;;;;;;;5054895;28;20052;-81
2023/12/09 02:08:53;;;;;;;1.85;1.75;;;;;;;;;;5055492;28;20107;-80
2023/12/09 02:11:41;;;;;;;0.95;0.82;;;;;;;;;;5053045;28;20021;-81
2023/12/09 02:14:14;;;;;;;1.13;1.08;;;;;;;;;;5049754;28;20431;-81
2023/12/09 02:17:19;;;;;;;2.58;1.95;;;;;;;;;;5050743;28;20039;-82
2023/12/09 02:19:46;;;;;;;3.42;2.13;;;;;;;;;;5083755;28;20024;-82
2023/12/09 02:22:11;;;;;;;1.75;1.48;;;;;;;;;;5053101;28;20118;-81
2023/12/09 02:24:39;;;;;;;1.17;1.13;;;;;;;;;;5051923;28;20049;-81
2023/12/09 02:27:13;;;;;;;1.17;0.93;;;;;;;;;;5051358;28;20036;-81
2023/12/09 02:30:08;;;;;;;1.95;1.45;;;;;;;;;;5055788;28;20698;-83
2023/12/09 02:32:34;;;;;;;1.40;0.80;;;;;;;;;;5060595;28;20040;-81
2023/12/09 02:35:03;;;;;;;4.05;2.17;;;;;;;;;;5055292;28;20182;-80
2023/12/09 02:37:30;;;;;;;0.88;0.88;;;;;;;;;;5055672;28;20039;-80
2023/12/09 02:39:58;;;;;;;2.83;1.52;;;;;;;;;;5056369;28;20038;-81
2023/12/09 02:42:24;;;;;;;3.30;2.25;;;;;;;;;;5055793;28;20044;-82
2023/12/09 02:44:50;;;;;;;3.08;2.53;;;;;;;;;;5052158;28;20539;-81
2023/12/09 02:47:16;;;;;;;0.57;0.57;;;;;;;;;;5058589;28;20032;-81
2023/12/09 02:49:42;;;;;;;4.78;1.95;;;;;;;;;;5056190;28;20032;-79
2023/12/09 02:52:07;;;;;;;2.03;1.60;;;;;;;;;;5054999;28;20021;-81
2023/12/09 02:54:33;;;;;;;1.95;0.85;;;;;;;;;;5052147;28;20032;-83
2023/12/09 02:56:58;;;;;;;1.33;1.27;;;;;;;;;;5056336;28;20044;-81
2023/12/09 02:59:24;;;;;;;0.73;0.73;;;;;;;;;;5054372;28;20024;-82
2023/12/09 03:01:49;;;;;;;1.00;0.80;;;;;;;;;;5053897;28;20044;-82
2023/12/09 03:04:15;;;;;;;1.70;0.93;;;;;;;;;;5056491;28;20276;-82
2023/12/09 03:06:43;;;;;;;0.40;0.40;;;;;;;;;;5055517;28;20028;-82
2023/12/09 03:09:08;;;;;;;0.70;0.70;;;;;;;;;;5055277;28;20484;-83
2023/12/09 03:11:34;;;;;;;1.75;1.65;;;;;;;;;;5057799;28;20025;-82
2023/12/09 03:13:59;;;;;;;2.78;2.20;;;;;;;;;;5055385;28;20349;-81
2023/12/09 03:16:25;;;;;;;1.38;1.27;;;;;;;;;;5053968;28;20045;-81
2023/12/09 03:18:50;;;;;;;2.40;1.58;;;;;;;;;;5057211;28;20715;-82
2023/12/09 03:21:16;;;;;;;2.15;1.95;;;;;;;;;;5055233;28;20116;-81
2023/12/09 03:23:42;;;;;;;0.57;0.57;;;;;;;;;;5055503;28;20025;-80
2023/12/09 03:26:15;;;;;;;1.35;1.25;;;;;;;;;;5054845;28;20436;-82
2023/12/09 03:28:42;;;;;;;4.93;1.50;;;;;;;;;;5057195;28;20024;-80
2023/12/09 03:31:14;;;;;;;1.80;1.50;;;;;;;;;;5055574;28;20027;-81
2023/12/09 03:33:43;;;;;;;1.60;0.90;;;;;;;;;;5055051;28;20033;-81
2023/12/09 03:36:17;;;;;;;1.10;1.10;;;;;;;;;;5053300;28;20039;-82
2023/12/09 03:38:43;;;;;;;3.85;2.15;;;;;;;;;;5055799;28;20024;-80
2023/12/09 03:41:09;;;;;;;5.10;1.73;;;;;;;;;;5056560;28;20463;-81
2023/12/09 03:43:35;;;;;;;2.42;1.10;;;;;;;;;;5052869;28;20075;-81
2023/12/09 03:46:12;;;;;;;1.67;1.58;;;;;;;;;;5055597;28;20060;-83
2023/12/09 03:48:37;;;;;;;1.33;1.27;;;;;;;;;;5053290;28;20021;-82
2023/12/09 03:51:03;;;;;;;0.88;0.82;;;;;;;;;;5053871;28;20040;-82
2023/12/09 03:53:28;;;;;;;4.80;2.08;;;;;;;;;;5049910;28;20032;-83
2023/12/09 03:55:54;;;;;;;1.90;1.58;;;;;;;;;;5056125;28;20044;-81
2023/12/09 03:58:22;;;;;;;2.42;1.30;;;;;;;;;;5049328;28;20045;-81
2023/12/09 04:00:48;;;;;;;0.95;0.95;;;;;;;;;;5052651;28;20069;-82
2023/12/09 04:03:14;;;;;;;1.65;1.55;;;;;;;;;;5053756;28;20028;-81
2023/12/09 04:05:41;;;;;;;0.55;0.55;;;;;;;;;;5056850;28;20028;-81
2023/12/09 04:08:07;;;;;;;3.38;1.23;;;;;;;;;;5052889;28;20017;-80
2023/12/09 04:10:33;;;;;;;3.15;2.00;;;;;;;;;;5049039;28;20461;-81
2023/12/09 04:13:01;;;;;;;4.70;2.35;;;;;;;;;;5054191;28;20025;-82
2023/12/09 04:15:29;;;;;;;1.20;1.10;;;;;;;;;;5051537;28;20484;-80
2023/12/09 04:17:55;;;;;;;1.15;0.80;;;;;;;;;;5051279;28;20083;-80
2023/12/09 04:20:20;;;;;;;2.53;1.95;;;;;;;;;;5051146;28;20037;-81
2023/12/09 04:22:47;;;;;;;0.90;0.88;;;;;;;;;;5051502;28;20029;-81
2023/12/09 04:25:12;;;;;;;5.85;2.08;;;;;;;;;;5049231;28;20056;-82
2023/12/09 04:27:41;;;;;;;1.20;1.13;;;;;;;;;;5051408;28;20065;-81
2023/12/09 04:30:07;;;;;;;1.83;1.33;;;;;;;;;;5048019;28;20057;-80
2023/12/09 04:32:35;;;;;;;0.93;0.90;;;;;;;;;;5048951;28;20057;-82
2023/12/09 04:35:00;;;;;;;4.32;1.65;;;;;;;;;;5051122;28;20035;-82
2023/12/09 04:37:26;;;;;;;1.58;1.45;;;;;;;;;;5049204;28;20037;-83
2023/12/09 04:39:52;;;;;;;2.20;1.25;;;;;;;;;;5050613;28;20411;-84
2023/12/09 04:42:19;;;;;;;0.95;0.82;;;;;;;;;;5050571;28;20552;-83
2023/12/09 04:44:44;;;;;;;1.13;1.13;;;;;;;;;;5052910;28;20025;-82
2023/12/09 04:47:10;;;;;;;1.30;1.00;;;;;;;;;;5051321;28;20388;-78
2023/12/09 04:49:35;;;;;;;2.30;1.52;;;;;;;;;;5050199;28;20044;-82
2023/12/09 04:52:01;;;;;;;1.95;1.40;;;;;;;;;;5047485;28;20021;-81
2023/12/09 04:54:26;;;;;;;2.10;1.90;;;;;;;;;;5051298;28;20396;-82
2023/12/09 04:56:52;;;;;;;1.23;0.75;;;;;;;;;;5049626;28;20048;-81
2023/12/09 04:59:23;;;;;;;2.28;1.35;;;;;;;;;;5052877;28;20025;-82
2023/12/09 05:01:49;;;;;;;0.70;0.70;;;;;;;;;;5051394;28;20477;-81
2023/12/09 05:04:16;;;;;;;0.93;0.93;;;;;;;;;;5080738;28;20056;-81
2023/12/09 05:06:43;;;;;;;1.48;1.38;;;;;;;;;;5081867;28;20087;-81
2023/12/09 05:09:12;;;;;;;2.38;1.67;;;;;;;;;;5049765;28;20029;-81
2023/12/09 05:11:37;;;;;;;1.63;1.50;;;;;;;;;;5049901;28;20021;-79
2023/12/09 05:14:03;;;;;;;2.40;1.67;;;;;;;;;;5049837;28;20154;-80
2023/12/09 05:16:29;;;;;;;3.55;1.80;;;;;;;;;;5048085;28;20033;-80
2023/12/09 05:18:54;;;;;;;2.22;1.05;;;;;;;;;;5052132;28;20036;-81
2023/12/09 05:21:20;;;;;;;5.25;1.63;;;;;;;;;;5052312;28;20104;-79
2023/12/09 05:23:46;;;;;;;2.85;2.63;;;;;;;;;;5052733;28;20028;-82
2023/12/09 05:26:25;;;;;;;2.70;1.90;;;;;;;;;;5052026;28;20040;-79
2023/12/09 05:28:52;;;;;;;2.53;1.48;;;;;;;;;;5084755;28;20021;-80
2023/12/09 05:31:18;;;;;;;1.80;1.48;;;;;;;;;;5053525;28;20033;-81
2023/12/09 05:33:43;;;;;;;0.73;0.73;;;;;;;;;;5052870;28;20020;-80
2023/12/09 05:36:09;;;;;;;9.88;1.85;;;;;;;;;;5052866;28;20035;-80
2023/12/09 05:38:35;;;;;;;3.25;1.67;;;;;;;;;;5051186;28;20036;-79
2023/12/09 05:41:01;;;;;;;1.45;1.10;;;;;;;;;;5052216;28;20029;-78
2023/12/09 05:43:26;;;;;;;3.10;1.35;;;;;;;;;;5053743;28;20124;-79
2023/12/09 05:45:52;;;;;;;1.17;1.02;;;;;;;;;;5051872;28;20024;-80
2023/12/09 05:48:17;;;;;;;1.10;1.00;;;;;;;;;;5051311;28;20025;-81
2023/12/09 05:50:43;;;;;;;2.50;2.30;;;;;;;;;;5053515;28;20028;-80
2023/12/09 05:53:09;;;;;;;2.60;1.05;;;;;;;;;;5052232;28;20035;-80
2023/12/09 05:55:34;;;;;;;2.33;1.17;;;;;;;;;;5052149;28;20040;-80
2023/12/09 05:58:03;;;;;;;14.35;1.67;;;;;;;;;;5048326;28;20029;-78
2023/12/09 06:00:29;;;;;;;1.35;0.90;;;;;;;;;;5051769;28;20530;-78
2023/12/09 06:02:54;;;;;;;2.78;1.75;;;;;;;;;;5052437;28;20025;-80
2023/12/09 06:05:20;;;;;;;1.75;1.65;;;;;;;;;;5054470;28;20029;-78
2023/12/09 06:07:46;;;;;;;2.28;1.30;;;;;;;;;;5050394;28;20028;-79
2023/12/09 06:10:11;;;;;;;2.33;1.45;;;;;;;;;;5052807;28;20040;-79
2023/12/09 06:12:37;;;;;;;0.55;0.55;;;;;;;;;;5051904;28;20357;-77
2023/12/09 06:15:03;;;;;;;1.45;1.35;;;;;;;;;;5083628;28;20025;-78
2023/12/09 06:17:28;;;;;;;1.33;1.08;;;;;;;;;;5050134;28;20037;-78
2023/12/09 06:19:54;;;;;;;1.67;1.50;;;;;;;;;;5052117;28;20024;-79
2023/12/09 06:22:19;;;;;;;0.85;0.82;;;;;;;;;;5049131;28;20460;-79
2023/12/09 06:24:45;;;;;;;1.67;1.10;;;;;;;;;;5050841;28;20439;-79
2023/12/09 06:27:29;;;;;;;1.55;1.05;;;;;;;;;;5046741;28;20044;-79
2023/12/09 06:29:55;;;;;;;0.82;0.82;;;;;;;;;;5051889;28;20391;-79
2023/12/09 06:32:20;;;;;;;2.97;1.92;;;;;;;;;;5054304;28;20029;-78
2023/12/09 06:34:45;;;;;;;4.22;3.65;;;;;;;;;;5052590;28;20090;-78
2023/12/09 06:37:11;;;;;;;2.13;1.13;;;;;;;;;;5049520;28;20111;-77
2023/12/09 06:39:37;;;;;;;2.72;1.77;;;;;;;;;;5050335;28;20025;-79
2023/12/09 06:42:03;;;;;;;1.00;1.00;;;;;;;;;;5051696;28;20338;-78
2023/12/09 06:44:28;;;;;;;2.75;2.55;;;;;;;;;;5050770;28;20086;-77
2023/12/09 06:46:53;;;;;;;1.00;1.00;;;;;;;;;;5047745;28;20536;-78
2023/12/09 06:49:19;;;;;;;2.65;1.40;;;;;;;;;;5048649;28;20021;-78
2023/12/09 06:51:45;;;;;;;1.13;1.08;;;;;;;;;;5049962;28;20032;-78
2023/12/09 06:54:11;;;;;;;1.88;1.60;;;;;;;;;;5049700;28;20031;-78
2023/12/09 06:56:37;;;;;;;0.43;0.43;;;;;;;;;;5049798;28;20045;-79
2023/12/09 06:59:02;;;;;;;4.80;2.25;;;;;;;;;;5049734;28;20043;-78
2023/12/09 07:01:28;;;;;;;1.33;1.23;;;;;;;;;;5045947;28;20068;-79
2023/12/09 07:03:54;;;;;;;0.80;0.80;;;;;;;;;;5050156;28;20037;-77
2023/12/09 07:06:24;;;;;;;1.75;1.35;;;;;;;;;;5052027;28;20473;-78
2023/12/09 07:08:49;;;;;;;;;;;;;;;;;;5050831;28;20021;-78
2023/12/09 07:11:18;;;;;;;1.85;1.48;;;;;;;;;;5050177;28;19917;-78
2023/12/09 07:13:44;;;;;;;3.35;1.83;;;;;;;;;;5050886;28;20025;-78
2023/12/09 07:16:10;;;;;;;2.08;1.90;;;;;;;;;;5049945;28;20064;-79
2023/12/09 07:18:40;;;;;;;5.93;4.20;;;;;;;;;;5048734;28;20067;-78
2023/12/09 07:21:05;;;;;;;;;;;;;;;;;;5040933;28;20429;-78
2023/12/09 07:23:31;;;;;;;0.93;0.93;;;;;;;;;;5046612;28;19916;-78
2023/12/09 07:25:56;;;;;;;2.13;1.25;;;;;;;;;;5046853;28;20028;-78
2023/12/09 07:28:22;;;;;;;2.78;2.55;;;;;;;;;;5048057;28;20048;-78
2023/12/09 07:30:47;;;;;;;2.58;1.70;;;;;;;;;;5047967;28;20037;-78
2023/12/09 07:33:12;;;;;;;0.98;0.98;;;;;;;;;;5075733;28;20088;-77
2023/12/09 07:35:39;;;;;;;2.38;1.83;;;;;;;;;;5046037;28;20036;-78
2023/12/09 07:38:05;;;;;;;4.40;3.45;;;;;;;;;;5046146;28;20021;-78
2023/12/09 07:40:30;;;;;;;1.98;1.88;;;;;;;;;;5046714;28;20452;-78
2023/12/09 07:42:56;;;;;;;1.98;1.83;;;;;;;;;;5046587;28;20033;-81
2023/12/09 07:45:21;;;;;;;2.83;1.88;;;;;;;;;;5046723;28;20063;-79
2023/12/09 07:47:46;;;;;;;3.55;1.67;;;;;;;;;;5047577;28;20028;-81
2023/12/09 07:50:12;;;;;;;1.83;1.67;;;;;;;;;;5046689;28;20108;-81
2023/12/09 07:52:37;;;;;;;3.13;1.23;;;;;;;;;;5077951;28;20430;-80
2023/12/09 07:55:03;;;;;;;1.38;1.30;;;;;;;;;;5053569;28;20693;-82
2023/12/09 07:57:28;;;;;;;2.30;2.10;;;;;;;;;;5049190;28;20025;-81
2023/12/09 07:59:54;;;;;;;1.83;1.67;;;;;;;;;;5050689;28;20037;-80
2023/12/09 08:02:19;;;;;;;1.55;1.45;;;;;;;;;;5051027;28;20021;-79
2023/12/09 08:04:45;;;;;;;8.30;4.07;;;;;;;;;;5048063;28;21593;-78
2023/12/09 08:07:11;;;;;;;2.00;1.73;;;;;;;;;;5050101;28;20032;-77
2023/12/09 08:09:37;;;;;;;5.13;3.25;;;;;;;;;;5048536;28;20024;-78
2023/12/09 08:12:03;;;;;;;4.13;1.70;;;;;;;;;;5047789;28;20468;-78
2023/12/09 08:14:28;;;;;;;3.15;1.90;;;;;;;;;;5049194;28;20036;-77
2023/12/09 08:16:54;;;;;;;5.85;2.90;;;;;;;;;;5047095;28;20103;-77
2023/12/09 08:19:19;;;;;;;4.13;1.75;;;;;;;;;;5045166;28;20033;-77
2023/12/09 08:21:44;;;;;;;3.50;2.38;;;;;;;;;;5048617;28;20021;-77
2023/12/09 08:24:10;;;;;;;3.33;2.40;;;;;;;;;;5047243;28;20028;-79
2023/12/09 08:26:37;;;;;;;3.50;2.58;;;;;;;;;;5048688;28;20124;-79
2023/12/09 08:29:04;;;;;;;4.32;2.10;;;;;;;;;;5048764;28;20047;-77
2023/12/09 08:31:29;;;;;;;4.78;1.52;;;;;;;;;;5048647;28;20036;-77
2023/12/09 08:33:56;;;;;;;2.65;2.45;;;;;;;;;;5048421;28;20369;-78
2023/12/09 08:36:22;;;;;;;0.95;0.95;;;;;;;;;;5047556;28;20028;-78
2023/12/09 08:38:47;;;;;;;0.88;0.88;;;;;;;;;;5048629;28;20189;-78
2023/12/09 08:41:12;;;;;;;1.52;0.85;;;;;;;;;;5080678;28;20476;-77
2023/12/09 08:43:38;;;;;;;4.00;1.42;;;;;;;;;;5048243;28;20016;-77
2023/12/09 08:46:03;;;;;;;7.90;2.33;;;;;;;;;;5047387;28;20116;-79
2023/12/09 08:48:29;;;;;;;2.40;1.55;;;;;;;;;;5048121;28;20025;-78
2023/12/09 08:50:54;;;;;;;1.90;1.80;;;;;;;;;;5048179;28;20086;-79
2023/12/09 08:53:20;;;;;;;1.20;1.10;;;;;;;;;;5050480;28;20037;-77
2023/12/09 08:55:45;;;;;;;0.73;0.73;;;;;;;;;;5052209;28;20492;-77
2023/12/09 08:58:11;;;;;;;1.17;1.17;;;;;;;;;;5052083;28;20033;-78
2023/12/09 09:00:37;;;;;;;2.05;1.67;;;;;;;;;;5052247;28;20113;-79
2023/12/09 09:03:03;;;;;;;1.83;1.70;;;;;;;;;;5049335;28;20036;-78
2023/12/09 09:05:29;;;;;;;5.20;1.65;;;;;;;;;;5051542;28;20666;-78
2023/12/09 09:07:54;;;;;;;1.17;1.17;;;;;;;;;;5051624;28;20036;-78
2023/12/09 09:10:22;;;;;;;1.65;1.23;;;;;;;;;;5051582;28;20102;-77
2023/12/09 09:12:48;;;;;;;2.00;1.00;;;;;;;;;;5048097;28;20037;-78
2023/12/09 09:15:15;;;;;;;1.77;1.67;;;;;;;;;;5051321;28;20031;-77
2023/12/09 09:17:40;;;;;;;3.80;1.23;;;;;;;;;;5050990;28;20033;-78
2023/12/09 09:20:06;;;;;;;1.45;1.35;;;;;;;;;;5051913;28;20020;-77
2023/12/09 09:22:32;;;;;;;1.75;1.65;;;;;;;;;;5049990;28;20053;-78
2023/12/09 09:24:58;;;;;;;3.05;1.95;;;;;;;;;;5053361;28;20075;-77
2023/12/09 09:27:24;;;;;;;1.48;1.38;;;;;;;;;;5052224;28;20045;-79
2023/12/09 09:29:49;;;;;;;1.65;1.55;;;;;;;;;;5048796;28;20393;-77
2023/12/09 09:32:16;;;;;;;0.93;0.88;;;;;;;;;;5050540;28;20033;-79
2023/12/09 09:34:42;;;;;;;2.00;1.85;;;;;;;;;;5049288;28;20029;-79
2023/12/09 09:37:08;;;;;;;0.65;0.65;;;;;;;;;;5049430;28;20388;-77
2023/12/09 09:39:34;;;;;;;1.67;1.33;;;;;;;;;;5050713;28;20025;-80
2023/12/09 09:42:26;;;;;;;1.55;1.45;;;;;;;;;;5050783;28;20091;-79
2023/12/09 09:45:18;;;;;;;1.33;1.20;;;;;;;;;;5051057;28;20025;-77
2023/12/09 09:47:49;;;;;;;1.48;1.40;;;;;;;;;;5048179;28;20072;-79
2023/12/09 09:50:23;;;;;;;2.83;2.58;;;;;;;;;;5052241;28;20385;-78
2023/12/09 09:52:49;;;;;;;6.07;2.67;;;;;;;;;;5051620;28;20108;-78
2023/12/09 09:55:17;;;;;;;5.10;2.35;;;;;;;;;;5052135;28;20075;-78
2023/12/09 09:57:43;;;;;;;10.25;2.95;;;;;;;;;;5048889;28;20049;-79
2023/12/09 10:00:13;;;;;;;1.52;1.30;;;;;;;;;;5052251;28;20036;-78
2023/12/09 10:02:42;;;;;;;1.38;1.30;;;;;;;;;;5050083;28;20029;-78
2023/12/09 10:05:08;;;;;;;2.08;1.38;;;;;;;;;;5051593;28;20060;-78
2023/12/09 10:07:35;;;;;;;1.70;1.52;;;;;;;;;;5051097;28;20425;-78
2023/12/09 10:10:02;;;;;;;4.40;2.67;;;;;;;;;;5052873;28;20508;-78
2023/12/09 10:12:28;;;;;;;4.22;2.95;;;;;;;;;;5051577;28;20029;-80
2023/12/09 10:14:54;;;;;;;2.88;2.10;;;;;;;;;;5052335;28;20033;-79
2023/12/09 10:17:19;;;;;;;1.65;1.48;;;;;;;;;;5054101;28;20021;-79
2023/12/09 10:19:47;;;;;;;3.13;1.98;;;;;;;;;;5051491;28;20053;-79
2023/12/09 10:22:13;;;;;;;2.35;2.15;;;;;;;;;;5052122;28;20043;-78
2023/12/09 10:24:38;;;;;;;1.73;1.63;;;;;;;;;;5052864;28;20473;-78
2023/12/09 10:27:05;;;;;;;4.38;2.63;;;;;;;;;;5051762;28;20029;-79
2023/12/09 10:29:30;;;;;;;5.15;2.22;;;;;;;;;;5053594;28;20027;-79
2023/12/09 10:32:00;;;;;;;1.45;1.27;;;;;;;;;;5053940;28;20032;-80
2023/12/09 10:34:25;;;;;;;3.75;3.05;;;;;;;;;;5053979;28;20025;-80
2023/12/09 10:36:50;;;;;;;4.40;1.98;;;;;;;;;;5053745;28;20469;-78
2023/12/09 10:39:19;;;;;;;3.20;2.60;;;;;;;;;;5051530;28;20041;-79
2023/12/09 10:41:45;;;;;;;3.85;2.22;;;;;;;;;;5053092;28;20033;-80
2023/12/09 10:44:11;;;;;;;1.30;1.27;;;;;;;;;;5052805;28;20031;-80
2023/12/09 10:46:36;;;;;;;4.53;2.47;;;;;;;;;;5052840;28;20033;-78
2023/12/09 10:49:01;;;;;;;0.68;0.68;;;;;;;;;;5053322;28;20062;-80
2023/12/09 10:51:27;;;;;;;1.80;1.70;;;;;;;;;;5055485;28;20028;-79
2023/12/09 10:53:52;;;;;;;2.10;1.60;;;;;;;;;;5053322;28;20021;-79
2023/12/09 10:56:18;;;;;;;1.92;1.80;;;;;;;;;;5052468;28;20052;-78
2023/12/09 10:58:44;;;;;;;2.55;1.55;;;;;;;;;;5051913;28;20040;-80
2023/12/09 11:01:11;;;;;;;5.97;3.45;;;;;;;;;;5053422;28;20017;-78
2023/12/09 11:03:38;;;;;;;0.57;0.57;;;;;;;;;;5048154;28;20025;-80
2023/12/09 11:06:05;;;;;;;0.50;0.50;;;;;;;;;;5050369;28;20419;-80
2023/12/09 11:08:31;;;;;;;2.25;1.33;;;;;;;;;;5048420;28;20025;-79
2023/12/09 11:10:57;;;;;;;2.33;1.65;;;;;;;;;;5049845;28;20033;-80
2023/12/09 11:13:32;;;;;;;2.15;1.48;;;;;;;;;;5050041;28;20029;-79
2023/12/09 11:16:17;;;;;;;7.22;2.95;;;;;;;;;;5048372;28;20033;-79
2023/12/09 11:18:48;;;;;;;1.10;0.70;;;;;;;;;;5049233;28;20473;-78
2023/12/09 11:21:16;;;;;;;2.63;2.17;;;;;;;;;;5049848;28;20066;-78
2023/12/09 11:23:51;;;;;;;1.23;1.13;;;;;;;;;;5048763;28;20037;-79
2023/12/09 11:26:20;;;;;;;2.05;1.67;;;;;;;;;;5049996;28;20025;-79
2023/12/09 11:29:05;;;;;;;1.85;1.48;;;;;;;;;;5048728;28;20028;-80
2023/12/09 11:31:44;;;;;;;1.40;1.27;;;;;;;;;;5048871;28;20037;-81
2023/12/09 11:34:14;;;;;;;2.90;1.52;;;;;;;;;;5047034;28;20164;-78
2023/12/09 11:36:40;;;;;;;2.25;1.83;;;;;;;;;;5049449;28;20055;-80
2023/12/09 11:39:09;;;;;;;2.35;1.73;;;;;;;;;;5048948;28;20036;-79
2023/12/09 11:41:39;;;;;;;2.22;2.03;;;;;;;;;;5051061;28;20029;-80
2023/12/09 11:44:05;;;;;;;2.58;2.17;;;;;;;;;;5049215;28;20037;-79
2023/12/09 11:46:32;;;;;;;2.55;2.22;;;;;;;;;;5048510;28;20021;-79
2023/12/09 11:49:00;;;;;;;3.88;2.20;;;;;;;;;;5048069;28;20059;-79
2023/12/09 11:51:27;;;;;;;2.38;1.80;;;;;;;;;;5044665;28;20461;-79
2023/12/09 11:54:01;;;;;;;2.75;0.90;;;;;;;;;;5047505;28;20025;-80
2023/12/09 11:56:27;;;;;;;7.65;3.25;;;;;;;;;;5046424;28;20053;-82
2023/12/09 11:58:54;;;;;;;2.10;1.30;;;;;;;;;;5048382;28;20362;-79
2023/12/09 12:01:20;;;;;;;2.00;1.90;;;;;;;;;;5048578;28;20423;-79
2023/12/09 12:03:49;;;;;;;3.28;2.13;;;;;;;;;;5045721;28;20029;-80
2023/12/09 12:06:16;;;;;;;2.40;2.20;;;;;;;;;;5047306;28;20056;-79
2023/12/09 12:08:46;;;;;;;2.45;1.50;;;;;;;;;;5047877;28;20060;-81
2023/12/09 12:11:12;;;;;;;1.15;1.13;;;;;;;;;;5045455;28;20029;-77
2023/12/09 12:13:37;;;;;;;2.17;1.73;;;;;;;;;;5046869;28;20040;-78
2023/12/09 12:16:04;;;;;;;2.55;1.70;;;;;;;;;;5046092;28;20056;-79
2023/12/09 12:18:30;;;;;;;0.68;0.68;;;;;;;;;;5047569;28;20028;-78
2023/12/09 12:20:56;;;;;;;2.75;1.70;;;;;;;;;;5046042;28;20417;-80
2023/12/09 12:23:22;;;;;;;2.45;1.75;;;;;;;;;;5046275;28;20086;-79
2023/12/09 12:25:55;;;;;;;2.45;2.25;;;;;;;;;;5047757;28;20032;-78
2023/12/09 12:28:21;;;;;;;2.30;2.08;;;;;;;;;;5047440;28;20033;-79
2023/12/09 12:30:51;;;;;;;2.28;1.73;;;;;;;;;;5050712;28;20055;-80
2023/12/09 12:33:20;;;;;;;4.45;1.90;;;;;;;;;;5050221;28;20436;-79
2023/12/09 12:35:48;;;;;;;1.15;1.05;;;;;;;;;;5052741;28;20035;-78
2023/12/09 12:38:14;;;;;;;1.35;1.25;;;;;;;;;;5049863;28;20786;-79
2023/12/09 12:40:40;;;;;;;2.38;1.88;;;;;;;;;;5054218;28;20111;-77
2023/12/09 12:43:05;;;;;;;3.53;2.20;;;;;;;;;;5051228;28;20048;-80
2023/12/09 12:45:32;;;;;;;21.05;2.30;;;;;;;;;;5050679;28;20036;-77
2023/12/09 12:47:57;;;;;;;2.30;2.13;;;;;;;;;;5049212;28;20032;-76
2023/12/09 12:50:24;;;;;;;3.85;1.77;;;;;;;;;;5052003;28;20035;-76
2023/12/09 12:52:49;;;;;;;1.95;1.80;;;;;;;;;;5053880;28;20112;-79
2023/12/09 12:55:15;;;;;;;3.90;3.53;;;;;;;;;;5051423;28;20127;-79
2023/12/09 12:57:41;;;;;;;3.42;2.28;;;;;;;;;;5051734;28;20107;-79
2023/12/09 13:00:11;;;;;;;1.92;1.63;;;;;;;;;;5049825;28;20453;-76
2023/12/09 13:02:37;;;;;;;;;;;;;;;;;;5053115;28;20030;-76
2023/12/09 13:05:02;;;;;;;2.05;1.88;;;;;;;;;;5083927;28;19999;-77
2023/12/09 13:07:28;;;;;;;3.65;1.85;;;;;;;;;;5051940;28;20036;-78
2023/12/09 13:09:54;;;;;;;3.45;2.20;;;;;;;;;;5050383;28;20020;-78
2023/12/09 13:12:19;;;;;;;3.40;2.60;;;;;;;;;;5049708;28;20021;-78
2023/12/09 13:14:45;;;;;;;1.27;1.20;;;;;;;;;;5049953;28;20469;-77
2023/12/09 13:17:10;;;;;;;2.15;2.00;;;;;;;;;;5052083;28;20447;-78
2023/12/09 13:19:36;;;;;;;2.08;1.70;;;;;;;;;;5051721;28;20029;-77
2023/12/09 13:22:02;;;;;;;6.28;2.25;;;;;;;;;;5052295;28;20060;-79
2023/12/09 13:24:28;;;;;;;4.78;1.83;;;;;;;;;;5051370;28;20098;-79
2023/12/09 13:26:53;;;;;;;4.93;3.80;;;;;;;;;;5051653;28;20131;-78
2023/12/09 13:29:19;;;;;;;2.40;2.30;;;;;;;;;;5051791;28;20025;-78
2023/12/09 13:31:44;;;;;;;1.83;1.15;;;;;;;;;;5051737;28;20088;-78
2023/12/09 13:34:10;;;;;;;3.67;3.38;;;;;;;;;;5050413;28;20112;-79
2023/12/09 13:36:39;;;;;;;1.88;1.75;;;;;;;;;;5051178;28;20028;-78
2023/12/09 13:39:06;;;;;;;2.70;1.83;;;;;;;;;;5050256;28;20032;-78
2023/12/09 13:41:35;;;;;;;3.13;2.25;;;;;;;;;;5049829;28;21457;-79
2023/12/09 13:44:01;;;;;;;1.80;1.65;;;;;;;;;;5051358;28;20068;-80
2023/12/09 13:46:27;;;;;;;4.93;3.40;;;;;;;;;;5051609;28;20028;-79
2023/12/09 13:48:52;;;;;;;2.70;1.25;;;;;;;;;;5050027;28;20087;-79
2023/12/09 13:51:18;;;;;;;2.60;1.73;;;;;;;;;;5049216;28;20033;-79
2023/12/09 13:53:44;;;;;;;2.55;2.35;;;;;;;;;;5050435;28;20029;-78
2023/12/09 13:56:10;;;;;;;6.60;1.85;;;;;;;;;;5049609;28;20045;-79
2023/12/09 13:58:36;;;;;;;4.78;2.45;;;;;;;;;;5049249;28;20036;-79
2023/12/09 14:01:02;;;;;;;2.80;2.55;;;;;;;;;;5050821;28;20020;-79
2023/12/09 14:03:28;;;;;;;2.97;2.28;;;;;;;;;;5050524;28;20060;-79
2023/12/09 14:05:54;;;;;;;4.35;3.00;;;;;;;;;;5047985;28;20052;-78
2023/12/09 14:08:20;;;;;;;5.05;4.43;;;;;;;;;;5048882;28;20025;-81
2023/12/09 14:10:45;;;;;;;2.85;1.90;;;;;;;;;;5050621;28;20362;-77
2023/12/09 14:13:10;;;;;;;1.42;1.27;;;;;;;;;;5050378;28;20047;-78
2023/12/09 14:15:36;;;;;;;2.88;2.65;;;;;;;;;;5050914;28;20021;-76
2023/12/09 14:18:03;;;;;;;4.68;3.10;;;;;;;;;;5050058;28;20473;-77
2023/12/09 14:20:28;;;;;;;2.30;2.20;;;;;;;;;;5049148;28;20046;-78
2023/12/09 14:22:54;;;;;;;4.18;2.85;;;;;;;;;;5047818;28;20033;-78
2023/12/09 14:25:20;;;;;;;1.88;1.77;;;;;;;;;;5081759;28;20068;-78
2023/12/09 14:27:45;;;;;;;2.70;2.50;;;;;;;;;;5048433;28;20130;-77
2023/12/09 14:30:11;;;;;;;4.20;3.15;;;;;;;;;;5050237;28;20488;-78
2023/12/09 14:32:37;;;;;;;5.80;3.13;;;;;;;;;;5050012;28;20429;-78
2023/12/09 14:35:03;;;;;;;4.32;2.88;;;;;;;;;;5050211;28;20017;-78
2023/12/09 14:37:29;;;;;;;3.63;3.33;;;;;;;;;;5048065;28;20064;-78
2023/12/09 14:39:55;;;;;;;3.22;2.88;;;;;;;;;;5048565;28;20106;-78
2023/12/09 14:42:20;;;;;;;2.65;2.13;;;;;;;;;;5049879;28;20031;-78
2023/12/09 14:44:46;;;;;;;5.90;2.97;;;;;;;;;;5049928;28;20531;-79